createdAt,value
2018-11-12T00:02:15.793Z,2.17
2018-11-12T00:04:50.138Z,0.93
2018-11-12T00:07:26.459Z,2.73
2018-11-12T00:10:02.020Z,2.17
2018-11-12T00:12:37.764Z,2.50
2018-11-12T00:15:12.711Z,2.60
2018-11-12T00:17:48.145Z,3.25
2018-11-12T00:20:24.273Z,3.13
2018-11-12T00:22:58.937Z,2.63
2018-11-12T00:25:34.918Z,2.65
2018-11-12T00:28:10.411Z,2.55
2018-11-12T00:30:45.606Z,2.67
2018-11-12T00:33:20.236Z,1.77
2018-11-12T00:35:55.161Z,3.00
2018-11-12T00:38:29.618Z,2.50
2018-11-12T00:41:04.366Z,2.33
2018-11-12T00:43:39.886Z,1.70
2018-11-12T00:46:15.495Z,1.27
2018-11-12T00:48:50.110Z,2.17
2018-11-12T00:51:24.576Z,1.30
2018-11-12T00:57:02.195Z,3.85
2018-11-12T00:59:36.918Z,2.62
2018-11-12T01:04:59.385Z,3.08
2018-11-12T01:07:35.108Z,4.28
2018-11-12T01:10:12.739Z,3.97
2018-11-12T01:12:48.161Z,3.02
2018-11-12T01:15:25.264Z,1.45
2018-11-12T01:18:01.509Z,3.30
2018-11-12T01:20:36.469Z,4.97
2018-11-12T01:23:12.583Z,4.50
2018-11-12T01:25:47.416Z,2.20
2018-11-12T01:28:23.504Z,1.57
2018-11-12T01:31:07.828Z,4.53
2018-11-12T01:33:44.517Z,1.95
2018-11-12T01:36:20.052Z,1.75
2018-11-12T01:38:56.351Z,3.57
2018-11-12T01:41:31.359Z,2.20
2018-11-12T01:44:07.214Z,2.23
2018-11-12T01:46:41.826Z,2.03
2018-11-12T01:49:17.245Z,1.87
2018-11-12T01:51:51.942Z,1.43
2018-11-12T01:54:26.859Z,1.87
2018-11-12T01:57:01.970Z,1.27
2018-11-12T02:02:20.980Z,1.30
2018-11-12T02:04:56.715Z,0.70
2018-11-12T02:07:31.653Z,1.63
2018-11-12T02:10:06.927Z,1.93
2018-11-12T02:12:42.223Z,0.70
2018-11-12T02:15:18.069Z,0.90
2018-11-12T02:17:53.178Z,1.95
2018-11-12T02:20:28.603Z,1.40
2018-11-12T02:23:03.379Z,1.37
2018-11-12T02:25:38.087Z,6.22
2018-11-12T02:28:12.816Z,3.02
2018-11-12T02:30:48.924Z,1.42
2018-11-12T02:33:24.887Z,3.40
2018-11-12T02:36:00.557Z,1.57
2018-11-12T02:38:36.604Z,1.67
2018-11-12T02:41:11.291Z,1.40
2018-11-12T02:43:47.380Z,1.27
2018-11-12T02:46:22.287Z,1.20
2018-11-12T02:48:56.688Z,1.77
2018-11-12T02:51:32.717Z,2.62
2018-11-12T02:54:07.434Z,1.97
2018-11-12T02:56:42.278Z,1.62
2018-11-12T02:59:17.009Z,1.85
2018-11-12T03:01:53.007Z,0.70
2018-11-12T03:04:27.763Z,1.32
2018-11-12T03:07:02.796Z,1.85
2018-11-12T03:09:38.576Z,0.82
2018-11-12T03:12:14.602Z,1.60
2018-11-12T03:14:49.266Z,1.95
2018-11-12T03:17:23.644Z,0.55
2018-11-12T03:19:58.958Z,0.55
2018-11-12T03:22:33.757Z,0.60
2018-11-12T03:25:11.606Z,0.85
2018-11-12T03:27:46.695Z,0.57
2018-11-12T03:30:22.201Z,0.88
2018-11-12T03:32:57.734Z,0.60
2018-11-12T03:35:32.434Z,0.87
2018-11-12T03:38:08.086Z,0.60
2018-11-12T03:40:43.542Z,1.07
2018-11-12T03:43:19.140Z,0.50
2018-11-12T03:45:53.894Z,1.80
2018-11-12T03:48:28.956Z,0.60
2018-11-12T03:51:04.031Z,2.22
2018-11-12T03:53:37.978Z,0.60
2018-11-12T03:56:12.933Z,1.57
2018-11-12T03:58:48.147Z,0.63
2018-11-12T04:04:05.009Z,1.15
2018-11-12T04:06:41.257Z,0.70
2018-11-12T04:09:16.304Z,1.27
2018-11-12T04:11:52.064Z,0.70
2018-11-12T04:14:27.224Z,0.80
2018-11-12T04:17:02.994Z,0.60
2018-11-12T04:22:28.438Z,0.60
2018-11-12T04:25:03.777Z,1.55
2018-11-12T04:27:39.572Z,0.80
2018-11-12T04:32:52.936Z,0.87
2018-11-12T04:35:28.619Z,1.27
2018-11-12T04:38:03.276Z,0.90
2018-11-12T04:40:37.943Z,1.00
2018-11-12T04:48:37.808Z,1.05
2018-11-12T04:51:13.514Z,2.00
2018-11-12T04:53:48.549Z,2.10
2018-11-12T04:56:24.642Z,0.80
2018-11-12T04:58:59.669Z,1.40
2018-11-12T05:01:35.410Z,0.93
2018-11-12T05:06:53.807Z,1.53
2018-11-12T05:09:28.819Z,1.92
2018-11-12T05:12:04.122Z,1.93
2018-11-12T05:14:39.772Z,2.05
2018-11-12T05:17:14.452Z,1.98
2018-11-12T05:19:49.135Z,1.60
2018-11-12T05:22:23.905Z,2.67
2018-11-12T05:24:59.655Z,1.75
2018-11-12T05:27:34.379Z,1.97
2018-11-12T05:30:15.558Z,1.98
2018-11-12T05:32:50.572Z,1.90
2018-11-12T05:35:25.854Z,3.98
2018-11-12T05:40:44.288Z,2.87
2018-11-12T05:43:19.088Z,2.90
2018-11-12T05:45:54.872Z,3.58
2018-11-12T05:48:30.131Z,3.47
2018-11-12T05:51:05.109Z,2.58
2018-11-12T05:53:40.276Z,3.58
2018-11-12T05:56:14.903Z,2.90
2018-11-12T05:58:50.549Z,3.00
2018-11-12T06:01:26.022Z,4.08
2018-11-12T06:04:01.402Z,3.80
2018-11-12T06:06:36.523Z,3.85
2018-11-12T06:09:12.820Z,4.00
2018-11-12T06:11:48.385Z,5.73
2018-11-12T06:14:23.636Z,3.83
2018-11-12T06:16:58.572Z,5.75
2018-11-12T06:19:34.390Z,4.50
2018-11-12T06:22:10.383Z,6.17
2018-11-12T06:24:46.201Z,3.95
2018-11-12T06:27:20.871Z,3.37
2018-11-12T06:29:55.258Z,3.90
2018-11-12T06:32:30.437Z,3.27
2018-11-12T06:35:05.737Z,3.17
2018-11-12T06:37:41.323Z,4.55
2018-11-12T06:40:17.470Z,3.83
2018-11-12T06:42:51.887Z,5.17
2018-11-12T06:45:26.941Z,5.17
2018-11-12T06:48:02.140Z,3.90
2018-11-12T06:50:37.274Z,4.55
2018-11-12T06:53:12.876Z,4.37
2018-11-12T06:55:47.578Z,4.22
2018-11-12T06:58:23.418Z,5.97
2018-11-12T07:00:58.803Z,5.70
2018-11-12T07:03:33.084Z,5.70
2018-11-12T07:06:08.350Z,6.97
2018-11-12T07:08:43.791Z,6.30
2018-11-12T07:11:19.016Z,6.60
2018-11-12T07:13:54.591Z,8.03
2018-11-12T07:16:32.593Z,6.10
2018-11-12T07:19:07.763Z,6.87
2018-11-12T07:21:42.312Z,5.60
2018-11-12T07:29:40.802Z,7.72
2018-11-12T07:32:15.474Z,5.23
2018-11-12T07:37:32.169Z,5.53
2018-11-12T07:40:07.858Z,3.85
2018-11-12T07:42:44.264Z,8.33
2018-11-12T07:48:06.916Z,3.47
2018-11-12T07:50:42.452Z,3.55
2018-11-12T07:53:18.592Z,3.55
2018-11-12T07:58:39.378Z,7.22
2018-11-12T08:01:14.828Z,3.12
2018-11-12T08:03:49.293Z,3.05
2018-11-12T08:09:06.361Z,3.17
2018-11-12T08:11:42.949Z,4.15
2018-11-12T08:14:17.915Z,4.80
2018-11-12T08:16:52.710Z,4.15
2018-11-12T08:19:28.317Z,5.20
2018-11-12T08:22:04.677Z,3.75
2018-11-12T08:24:40.627Z,4.03
2018-11-12T08:27:14.904Z,2.80
2018-11-12T08:29:49.614Z,3.62
2018-11-12T08:32:25.049Z,2.80
2018-11-12T08:35:01.004Z,3.12
2018-11-12T08:37:37.052Z,4.37
2018-11-12T08:40:14.838Z,3.85
2018-11-12T08:42:50.171Z,3.42
2018-11-12T08:45:24.588Z,4.67
2018-11-12T08:47:59.570Z,3.33
2018-11-12T08:50:34.281Z,5.55
2018-11-12T08:53:10.092Z,3.72
2018-11-12T08:55:44.847Z,3.98
2018-11-12T08:58:21.212Z,3.37
2018-11-12T09:00:56.556Z,2.30
2018-11-12T09:03:31.122Z,3.83
2018-11-12T09:06:06.705Z,3.98
2018-11-12T09:11:23.664Z,5.08
2018-11-12T09:13:58.398Z,4.80
2018-11-12T09:16:34.013Z,4.67
2018-11-12T09:19:08.982Z,2.83
2018-11-12T09:21:43.812Z,2.12
2018-11-12T09:24:19.095Z,3.40
2018-11-12T09:26:54.855Z,3.80
2018-11-12T09:35:30.895Z,3.35
2018-11-12T09:38:05.403Z,2.60
2018-11-12T09:40:40.301Z,4.53
2018-11-12T09:43:15.395Z,3.10
2018-11-12T09:45:51.268Z,2.75
2018-11-12T09:48:26.511Z,4.97
2018-11-12T09:51:01.448Z,3.85
2018-11-12T09:59:10.937Z,3.70
2018-11-12T10:01:46.935Z,1.90
2018-11-12T10:04:23.335Z,2.42
2018-11-12T10:06:57.654Z,2.62
2018-11-12T10:09:33.332Z,1.65
2018-11-12T10:17:40.382Z,2.58
2018-11-12T10:20:12.975Z,1.37
2018-11-12T10:28:16.255Z,2.12
2018-11-12T10:30:51.817Z,1.60
2018-11-12T10:33:26.880Z,7.37
2018-11-12T10:38:55.016Z,1.85
2018-11-12T10:41:29.494Z,2.87
2018-11-12T10:44:04.490Z,2.70
2018-11-12T10:49:26.419Z,2.00
2018-11-12T10:52:02.252Z,2.65
2018-11-12T10:57:25.700Z,1.60
2018-11-12T11:00:00.387Z,3.33
2018-11-12T11:08:23.793Z,2.15
2018-11-12T11:10:59.334Z,2.22
2018-11-12T11:13:35.133Z,1.55
2018-11-12T11:19:27.348Z,1.67
2018-11-12T11:22:01.982Z,2.85
2018-11-12T11:27:18.593Z,2.72
2018-11-12T11:29:53.922Z,2.58
2018-11-12T11:32:30.004Z,1.87
2018-11-12T11:37:51.744Z,1.22
2018-11-12T11:40:27.740Z,2.72
2018-11-12T11:43:02.326Z,2.98
2018-11-12T11:48:20.680Z,1.82
2018-11-12T11:50:57.346Z,1.82
2018-11-12T11:53:32.591Z,2.05
2018-11-12T11:58:53.284Z,1.42
2018-11-12T12:01:29.703Z,3.27
2018-11-12T12:04:04.442Z,2.30
2018-11-12T12:12:13.011Z,3.08
2018-11-12T12:17:29.649Z,2.30
2018-11-12T12:20:05.551Z,2.30
2018-11-12T12:22:41.480Z,1.17
2018-11-12T12:28:00.746Z,2.67
2018-11-12T12:30:36.435Z,2.42
2018-11-12T12:33:10.770Z,2.17
2018-11-12T12:38:37.702Z,1.80
2018-11-12T12:41:13.647Z,1.72
2018-11-12T12:43:49.099Z,1.17
2018-11-12T12:49:06.507Z,1.30
2018-11-12T12:51:41.378Z,0.95
2018-11-12T12:54:16.296Z,2.92
2018-11-12T12:59:34.297Z,2.92
2018-11-12T13:02:09.008Z,1.15
2018-11-12T13:07:32.974Z,2.30
2018-11-12T13:10:09.241Z,2.33
2018-11-12T13:12:44.060Z,1.80
2018-11-12T13:18:02.128Z,3.05
2018-11-12T13:20:37.322Z,2.42
2018-11-12T13:23:12.375Z,1.67
2018-11-12T13:28:29.804Z,2.35
2018-11-12T13:31:05.189Z,1.42
2018-11-12T13:33:39.822Z,2.05
2018-11-12T13:38:57.157Z,2.25
2018-11-12T13:41:32.722Z,1.22
2018-11-12T13:44:07.324Z,2.72
2018-11-12T13:49:38.131Z,5.33
2018-11-12T13:52:12.767Z,3.02
2018-11-12T13:57:29.496Z,1.70
2018-11-12T14:00:04.524Z,1.32
2018-11-12T14:02:39.796Z,1.20
2018-11-12T14:08:07.397Z,1.57
2018-11-12T14:10:43.182Z,1.30
2018-11-12T14:13:17.584Z,1.95
2018-11-12T14:18:34.626Z,1.17
2018-11-12T14:21:09.362Z,3.92
2018-11-12T14:23:43.928Z,2.17
2018-11-12T14:29:06.024Z,3.00
2018-11-12T14:31:41.523Z,2.72
2018-11-12T14:34:16.295Z,3.85
2018-11-12T14:39:42.916Z,3.10
2018-11-12T14:42:18.777Z,1.60
2018-11-12T14:47:36.674Z,6.20
2018-11-12T14:50:12.034Z,4.45
2018-11-12T14:52:50.214Z,4.30
2018-11-12T14:58:19.461Z,5.22
2018-11-12T15:00:54.776Z,9.60
2018-11-12T15:03:29.628Z,8.90
2018-11-12T15:08:53.821Z,11.85
2018-11-12T15:11:29.188Z,13.90
2018-11-12T15:14:04.356Z,16.82
2018-11-12T15:19:30.017Z,16.42
2018-11-12T15:27:52.659Z,20.30
2018-11-12T15:30:28.342Z,18.90
2018-11-12T15:33:02.795Z,21.60
2018-11-12T15:38:21.040Z,23.55
2018-11-12T15:43:38.552Z,27.95
2018-11-12T15:49:01.065Z,25.25
2018-11-12T15:51:35.669Z,27.58
2018-11-12T15:54:12.198Z,29.42
2018-11-12T15:59:29.276Z,27.87
2018-11-12T16:02:03.611Z,29.48
2018-11-12T16:07:33.646Z,30.30
2018-11-12T16:10:11.555Z,35.85
2018-11-12T16:12:46.356Z,31.68
2018-11-12T16:15:21.654Z,30.12
2018-11-12T16:20:41.517Z,31.50
2018-11-12T16:23:15.999Z,34.18
2018-11-12T16:28:33.436Z,56.08
2018-11-12T16:31:09.484Z,52.70
2018-11-12T16:33:44.687Z,49.30
2018-11-12T16:39:10.708Z,48.55
2018-11-12T16:41:45.592Z,48.48
2018-11-12T16:44:20.313Z,52.95
2018-11-12T16:49:37.968Z,55.43
2018-11-12T16:52:12.746Z,50.38
2018-11-12T16:57:29.827Z,52.20
2018-11-12T17:00:04.472Z,47.88
2018-11-12T17:02:39.140Z,45.63
2018-11-12T17:07:59.449Z,42.70
2018-11-12T17:10:34.434Z,42.33
2018-11-12T17:13:08.872Z,42.98
2018-11-12T17:18:35.265Z,33.30
2018-11-12T17:21:09.686Z,27.20
2018-11-12T17:23:44.232Z,23.50
2018-11-12T17:29:08.126Z,15.90
2018-11-12T17:31:42.906Z,14.70
2018-11-12T17:34:18.324Z,15.35
2018-11-12T17:39:40.273Z,18.30
2018-11-12T17:42:15.183Z,15.72
2018-11-12T17:47:33.544Z,16.77
2018-11-12T17:50:09.890Z,19.40
2018-11-12T17:52:44.596Z,18.20
2018-11-12T17:58:01.658Z,15.78
2018-11-12T18:03:19.963Z,13.28
2018-11-12T18:05:54.293Z,14.50
2018-11-12T18:11:25.021Z,15.90
2018-11-12T18:13:59.842Z,13.55
2018-11-12T18:19:24.417Z,12.55
2018-11-12T18:21:59.090Z,17.37
2018-11-12T18:27:17.216Z,15.87
2018-11-12T18:29:54.054Z,20.15
2018-11-12T18:32:29.069Z,15.88
2018-11-12T18:37:47.262Z,22.42
2018-11-12T18:40:23.989Z,17.17
2018-11-12T18:42:59.135Z,14.45
2018-11-12T18:48:15.758Z,16.07
2018-11-12T18:50:50.619Z,14.60
2018-11-12T18:53:25.706Z,16.80
2018-11-12T18:58:42.675Z,18.05
2018-11-12T19:01:17.732Z,19.87
2018-11-12T19:03:52.761Z,17.82
2018-11-12T19:09:12.754Z,18.82
2018-11-12T19:11:47.187Z,19.62
2018-11-12T19:14:22.377Z,19.65
2018-11-12T19:19:39.864Z,21.20
2018-11-12T19:22:15.367Z,23.07
2018-11-12T19:27:34.265Z,21.93
2018-11-12T19:30:20.941Z,20.75
2018-11-12T19:32:55.378Z,22.62
2018-11-12T19:38:16.525Z,22.60
2018-11-12T19:40:52.174Z,21.30
2018-11-12T19:43:27.195Z,23.05
2018-11-12T19:48:43.996Z,22.35
2018-11-12T19:51:19.316Z,21.35
2018-11-12T19:53:55.361Z,24.37
2018-11-12T19:59:12.116Z,27.35
2018-11-12T20:01:47.427Z,26.97
2018-11-12T20:04:22.342Z,25.97
2018-11-12T20:09:40.554Z,27.15
2018-11-12T20:12:14.809Z,26.37
2018-11-12T20:17:33.955Z,26.33
2018-11-12T20:20:16.471Z,29.13
2018-11-12T20:22:51.579Z,33.48
2018-11-12T20:28:10.066Z,30.37
2018-11-12T20:30:44.633Z,31.70
2018-11-12T20:33:19.466Z,31.12
2018-11-12T20:38:41.855Z,29.43
2018-11-12T20:41:16.537Z,32.42
2018-11-12T20:43:51.376Z,34.75
2018-11-12T20:49:17.645Z,29.00
2018-11-12T20:51:51.792Z,27.93
2018-11-12T20:54:26.379Z,26.02
2018-11-12T20:59:43.757Z,23.45
2018-11-12T21:02:19.688Z,21.62
2018-11-12T21:07:45.698Z,20.70
2018-11-12T21:10:21.282Z,20.02
2018-11-12T21:12:56.139Z,20.97
2018-11-12T21:18:14.055Z,22.03
2018-11-12T21:23:40.009Z,22.15
2018-11-12T21:26:15.024Z,25.00
2018-11-12T21:28:50.787Z,26.63
2018-11-12T21:34:06.963Z,24.95
2018-11-12T21:39:25.167Z,23.45
2018-11-12T21:42:00.347Z,27.13
2018-11-12T21:47:39.266Z,31.57
2018-11-12T21:50:16.439Z,28.87
2018-11-12T21:58:27.605Z,30.97
2018-11-12T22:01:02.635Z,32.10
2018-11-12T22:09:20.164Z,30.10
2018-11-12T22:11:54.475Z,29.37
2018-11-12T22:20:07.640Z,32.88
2018-11-12T22:22:43.514Z,30.92
2018-11-12T22:30:53.936Z,27.37
2018-11-12T22:33:28.666Z,27.60
2018-11-12T22:41:39.483Z,30.32
2018-11-12T22:44:14.944Z,27.77
2018-11-12T22:52:33.755Z,32.55
2018-11-12T22:57:51.547Z,32.60
2018-11-12T23:00:31.209Z,31.27
2018-11-12T23:09:19.385Z,36.73
2018-11-12T23:11:53.733Z,38.97
2018-11-12T23:20:17.655Z,36.30
2018-11-12T23:22:53.418Z,38.53
2018-11-12T23:31:07.586Z,34.30
2018-11-12T23:33:42.352Z,38.67
2018-11-12T23:41:55.312Z,36.53
2018-11-12T23:44:29.666Z,41.47
2018-11-12T23:52:42.259Z,36.95
2018-11-12T23:58:03.467Z,39.42
